DLH322 EDDF-LICJ
Flight info
| Callsign | DLH322 |
|---|---|
| Flight time | 1h 58m |
| Altitude | 37000 |
| Route | ANEKI2L/18 ANEKI Y163 NATOR DCT TRA DCT RIPUS DCT GERSA DCT SOSON DCT ODINA DCT ELB DCT VELAD DCT TINTO DCT POKAV DCT BETOT DCT RUVIP DCT RONAB DCT GIANO |
| Aircraft | A21N/M-SDE2E3FGIJ1LORWXYZ/HB1 |
Departure
| Time | 2026-04-14 13:21 |
|---|---|
| Airport | Frankfurt Main Airport (EDDF) |
Arrival
| Time | 2026-04-14 15:20 |
|---|---|
| Airport | Falcone–Borsellino Airport (LICJ) |
| Time | Latitude | Longitude | Altitude | Speed | Heading |
|---|---|---|---|---|---|
| 2026-04-14 12:43 | 50.04653 | 8.56816 | 366 ft | 0 kts | 295° |
| 2026-04-14 13:08 | 50.04649 | 8.56832 | 363 ft | 4 kts | 295° |
| 2026-04-14 13:09 | 50.04638 | 8.56869 | 365 ft | 3 kts | 295° |
| 2026-04-14 13:09 | 50.04631 | 8.56905 | 361 ft | 4 kts | 258° |
| 2026-04-14 13:09 | 50.04644 | 8.56931 | 367 ft | 4 kts | 202° |
| 2026-04-14 13:09 | 50.04668 | 8.56945 | 361 ft | 2 kts | 204° |
| 2026-04-14 13:10 | 50.04657 | 8.56937 | 363 ft | 4 kts | 204° |
| 2026-04-14 13:10 | 50.04652 | 8.56933 | 365 ft | 0 kts | 204° |
| 2026-04-14 13:12 | 50.04651 | 8.56933 | 365 ft | 1 kts | 204° |
| 2026-04-14 13:12 | 50.04638 | 8.56924 | 361 ft | 4 kts | 199° |
| 2026-04-14 13:13 | 50.04603 | 8.56909 | 361 ft | 7 kts | 192° |
| 2026-04-14 13:13 | 50.04546 | 8.56889 | 366 ft | 10 kts | 193° |
| 2026-04-14 13:13 | 50.04472 | 8.56863 | 365 ft | 12 kts | 192° |
| 2026-04-14 13:13 | 50.04396 | 8.56844 | 365 ft | 9 kts | 188° |
| 2026-04-14 13:14 | 50.04365 | 8.56835 | 365 ft | 0 kts | 191° |
| 2026-04-14 13:14 | 50.04364 | 8.56835 | 365 ft | 1 kts | 191° |
| 2026-04-14 13:14 | 50.04347 | 8.56830 | 368 ft | 4 kts | 192° |
| 2026-04-14 13:14 | 50.04303 | 8.56815 | 365 ft | 9 kts | 192° |
| 2026-04-14 13:15 | 50.04241 | 8.56746 | 365 ft | 14 kts | 244° |
| 2026-04-14 13:15 | 50.04203 | 8.56601 | 363 ft | 16 kts | 250° |
| 2026-04-14 13:15 | 50.04163 | 8.56427 | 361 ft | 18 kts | 250° |
| 2026-04-14 13:15 | 50.04116 | 8.56228 | 360 ft | 20 kts | 250° |
| 2026-04-14 13:16 | 50.04065 | 8.56017 | 360 ft | 22 kts | 248° |
| 2026-04-14 13:16 | 50.04009 | 8.55788 | 360 ft | 23 kts | 250° |
| 2026-04-14 13:16 | 50.03952 | 8.55546 | 356 ft | 24 kts | 250° |
| 2026-04-14 13:16 | 50.03892 | 8.55293 | 362 ft | 26 kts | 250° |
| 2026-04-14 13:17 | 50.03829 | 8.55028 | 358 ft | 27 kts | 250° |
| 2026-04-14 13:17 | 50.03764 | 8.54757 | 358 ft | 27 kts | 250° |
| 2026-04-14 13:17 | 50.03700 | 8.54486 | 352 ft | 27 kts | 250° |
| 2026-04-14 13:17 | 50.03634 | 8.54208 | 355 ft | 28 kts | 250° |
| 2026-04-14 13:18 | 50.03565 | 8.53919 | 346 ft | 29 kts | 249° |
| 2026-04-14 13:18 | 50.03496 | 8.53635 | 347 ft | 24 kts | 250° |
| 2026-04-14 13:18 | 50.03436 | 8.53381 | 346 ft | 26 kts | 250° |
| 2026-04-14 13:18 | 50.03373 | 8.53117 | 348 ft | 27 kts | 250° |
| 2026-04-14 13:19 | 50.03314 | 8.52871 | 337 ft | 19 kts | 249° |
| 2026-04-14 13:19 | 50.03291 | 8.52776 | 339 ft | 6 kts | 250° |
| 2026-04-14 13:19 | 50.03287 | 8.52758 | 338 ft | 0 kts | 249° |
| 2026-04-14 13:20 | 50.03285 | 8.52749 | 336 ft | 3 kts | 249° |
| 2026-04-14 13:20 | 50.03273 | 8.52696 | 338 ft | 8 kts | 257° |
| 2026-04-14 13:20 | 50.03255 | 8.52604 | 338 ft | 10 kts | 210° |
| 2026-04-14 13:20 | 50.03218 | 8.52596 | 341 ft | 10 kts | 181° |
| 2026-04-14 13:21 | 50.02893 | 8.52596 | 336 ft | 85 kts | 180° |
| 2026-04-14 13:21 | 50.02068 | 8.52603 | 336 ft | 150 kts | 180° |
| 2026-04-14 13:21 | 50.00874 | 8.52609 | 473 ft | 182 kts | 181° |
| 2026-04-14 13:21 | 49.99638 | 8.52608 | 1206 ft | 180 kts | 179° |
| 2026-04-14 13:22 | 49.98343 | 8.52748 | 1814 ft | 191 kts | 175° |
| 2026-04-14 13:22 | 49.96961 | 8.52936 | 2325 ft | 207 kts | 174° |
| 2026-04-14 13:22 | 49.95475 | 8.53107 | 2926 ft | 222 kts | 175° |
| 2026-04-14 13:22 | 49.93853 | 8.53244 | 3476 ft | 239 kts | 178° |
| 2026-04-14 13:23 | 49.92189 | 8.53297 | 4407 ft | 240 kts | 178° |
| 2026-04-14 13:23 | 49.90509 | 8.53361 | 5269 ft | 243 kts | 177° |
| 2026-04-14 13:23 | 49.88819 | 8.53458 | 6058 ft | 249 kts | 177° |
| 2026-04-14 13:23 | 49.87086 | 8.53567 | 6753 ft | 249 kts | 177° |
| 2026-04-14 13:24 | 49.85331 | 8.53678 | 7461 ft | 255 kts | 177° |
| 2026-04-14 13:24 | 49.81783 | 8.53909 | 9209 ft | 253 kts | 178° |
| 2026-04-14 13:24 | 49.80027 | 8.54025 | 10101 ft | 253 kts | 179° |
| 2026-04-14 13:25 | 49.78264 | 8.54120 | 10855 ft | 254 kts | 182° |
| 2026-04-14 13:25 | 49.76461 | 8.53970 | 11351 ft | 269 kts | 186° |
| 2026-04-14 13:26 | 49.70241 | 8.53116 | 12397 ft | 323 kts | 186° |
| 2026-04-14 13:26 | 49.67982 | 8.52814 | 13087 ft | 329 kts | 186° |
| 2026-04-14 13:26 | 49.65686 | 8.52509 | 13855 ft | 333 kts | 186° |
| 2026-04-14 13:26 | 49.63367 | 8.52202 | 14545 ft | 337 kts | 186° |
| 2026-04-14 13:27 | 49.61021 | 8.51893 | 15229 ft | 340 kts | 186° |
| 2026-04-14 13:27 | 49.58651 | 8.51581 | 15909 ft | 344 kts | 186° |
| 2026-04-14 13:27 | 49.56258 | 8.51268 | 16586 ft | 347 kts | 186° |
| 2026-04-14 13:27 | 49.53835 | 8.50949 | 17265 ft | 351 kts | 186° |
| 2026-04-14 13:28 | 49.51391 | 8.50628 | 17938 ft | 355 kts | 186° |
| 2026-04-14 13:28 | 49.48919 | 8.50303 | 18594 ft | 358 kts | 186° |
| 2026-04-14 13:28 | 49.46421 | 8.49977 | 19180 ft | 361 kts | 186° |
| 2026-04-14 13:28 | 49.43912 | 8.49650 | 19779 ft | 364 kts | 186° |
| 2026-04-14 13:29 | 49.41385 | 8.49319 | 20361 ft | 366 kts | 186° |
| 2026-04-14 13:29 | 49.38837 | 8.48986 | 20951 ft | 368 kts | 186° |
| 2026-04-14 13:29 | 49.36277 | 8.48652 | 21529 ft | 371 kts | 186° |
| 2026-04-14 13:29 | 49.33701 | 8.48316 | 22118 ft | 373 kts | 186° |
| 2026-04-14 13:30 | 49.31107 | 8.47980 | 22690 ft | 375 kts | 186° |
| 2026-04-14 13:30 | 49.29379 | 8.47757 | 23060 ft | 377 kts | 186° |
| 2026-04-14 13:30 | 49.26761 | 8.47420 | 23615 ft | 379 kts | 186° |
| 2026-04-14 13:30 | 49.24121 | 8.47078 | 24086 ft | 382 kts | 186° |
| 2026-04-14 13:31 | 49.21464 | 8.46731 | 24480 ft | 385 kts | 186° |
| 2026-04-14 13:31 | 49.18784 | 8.46381 | 24905 ft | 388 kts | 186° |
| 2026-04-14 13:31 | 49.16087 | 8.46030 | 25325 ft | 391 kts | 186° |
| 2026-04-14 13:31 | 49.13361 | 8.45677 | 25730 ft | 394 kts | 186° |
| 2026-04-14 13:32 | 49.10623 | 8.45322 | 26116 ft | 397 kts | 186° |
| 2026-04-14 13:32 | 49.07859 | 8.44963 | 26498 ft | 400 kts | 186° |
| 2026-04-14 13:32 | 49.05096 | 8.44346 | 26876 ft | 402 kts | 193° |
| 2026-04-14 13:32 | 49.02357 | 8.43400 | 27252 ft | 405 kts | 194° |
| 2026-04-14 13:33 | 48.99598 | 8.42415 | 27614 ft | 409 kts | 194° |
| 2026-04-14 13:33 | 48.96821 | 8.41433 | 27960 ft | 411 kts | 194° |
| 2026-04-14 13:33 | 48.94017 | 8.40453 | 28306 ft | 415 kts | 194° |
| 2026-04-14 13:33 | 48.91188 | 8.39466 | 28650 ft | 418 kts | 194° |
| 2026-04-14 13:34 | 48.85515 | 8.37494 | 29330 ft | 424 kts | 194° |
| 2026-04-14 13:34 | 48.82588 | 8.36481 | 29655 ft | 427 kts | 194° |
| 2026-04-14 13:34 | 48.79720 | 8.35491 | 29970 ft | 430 kts | 194° |
| 2026-04-14 13:35 | 48.76796 | 8.34464 | 30275 ft | 432 kts | 194° |
| 2026-04-14 13:35 | 48.73867 | 8.33392 | 30533 ft | 435 kts | 195° |
| 2026-04-14 13:35 | 48.70921 | 8.32309 | 30788 ft | 437 kts | 195° |
| 2026-04-14 13:35 | 48.67957 | 8.31225 | 31035 ft | 440 kts | 195° |
| 2026-04-14 13:36 | 48.64973 | 8.30137 | 31275 ft | 442 kts | 195° |
| 2026-04-14 13:36 | 48.61972 | 8.29043 | 31503 ft | 445 kts | 194° |
| 2026-04-14 13:36 | 48.58950 | 8.27943 | 31740 ft | 447 kts | 194° |
| 2026-04-14 13:36 | 48.55920 | 8.26842 | 31973 ft | 450 kts | 194° |
| 2026-04-14 13:37 | 48.52869 | 8.25737 | 32192 ft | 452 kts | 194° |
| 2026-04-14 13:37 | 48.49765 | 8.24882 | 32402 ft | 455 kts | 186° |
| 2026-04-14 13:37 | 48.46594 | 8.24911 | 32585 ft | 458 kts | 174° |
| 2026-04-14 13:37 | 48.43431 | 8.25612 | 32794 ft | 461 kts | 171° |
| 2026-04-14 13:38 | 48.40265 | 8.26435 | 33026 ft | 462 kts | 171° |
| 2026-04-14 13:38 | 48.37093 | 8.27250 | 33288 ft | 462 kts | 171° |
| 2026-04-14 13:38 | 48.33924 | 8.28044 | 33540 ft | 462 kts | 171° |
| 2026-04-14 13:38 | 48.30749 | 8.28822 | 33801 ft | 462 kts | 171° |
| 2026-04-14 13:39 | 48.27574 | 8.29592 | 34043 ft | 462 kts | 171° |
| 2026-04-14 13:39 | 48.24403 | 8.30351 | 34253 ft | 462 kts | 171° |
| 2026-04-14 13:39 | 48.21222 | 8.31115 | 34454 ft | 463 kts | 171° |
| 2026-04-14 13:39 | 48.18041 | 8.31884 | 34646 ft | 463 kts | 171° |
| 2026-04-14 13:40 | 48.14863 | 8.32652 | 34840 ft | 462 kts | 171° |
| 2026-04-14 13:40 | 48.11689 | 8.33419 | 35020 ft | 463 kts | 171° |
| 2026-04-14 13:40 | 48.08510 | 8.34188 | 35196 ft | 463 kts | 171° |
| 2026-04-14 13:40 | 48.05329 | 8.34960 | 35377 ft | 463 kts | 171° |
| 2026-04-14 13:41 | 48.02193 | 8.35722 | 35542 ft | 463 kts | 171° |
| 2026-04-14 13:41 | 47.98975 | 8.36501 | 35703 ft | 463 kts | 171° |
| 2026-04-14 13:41 | 47.95834 | 8.37258 | 35857 ft | 463 kts | 171° |
| 2026-04-14 13:41 | 47.92657 | 8.38020 | 36018 ft | 463 kts | 171° |
| 2026-04-14 13:42 | 47.89476 | 8.38785 | 36168 ft | 463 kts | 171° |
| 2026-04-14 13:42 | 47.86297 | 8.39552 | 36329 ft | 463 kts | 171° |
| 2026-04-14 13:42 | 47.83118 | 8.40315 | 36478 ft | 463 kts | 171° |
| 2026-04-14 13:42 | 47.79940 | 8.41075 | 36618 ft | 463 kts | 171° |
| 2026-04-14 13:43 | 47.76757 | 8.41834 | 36775 ft | 463 kts | 171° |
| 2026-04-14 13:43 | 47.73576 | 8.42594 | 36913 ft | 463 kts | 171° |
| 2026-04-14 13:43 | 47.70395 | 8.43355 | 37130 ft | 462 kts | 171° |
| 2026-04-14 13:44 | 47.64033 | 8.44452 | 37225 ft | 459 kts | 175° |
| 2026-04-14 13:44 | 47.57679 | 8.45368 | 37203 ft | 459 kts | 175° |
| 2026-04-14 13:45 | 47.51329 | 8.46297 | 37203 ft | 459 kts | 175° |
| 2026-04-14 13:45 | 47.44971 | 8.47230 | 37199 ft | 459 kts | 175° |
| 2026-04-14 13:46 | 47.38613 | 8.48164 | 37201 ft | 459 kts | 175° |
| 2026-04-14 13:46 | 47.32246 | 8.49093 | 37190 ft | 459 kts | 175° |
| 2026-04-14 13:47 | 47.25890 | 8.50022 | 37195 ft | 460 kts | 175° |
| 2026-04-14 13:47 | 47.19522 | 8.50950 | 37194 ft | 460 kts | 175° |
| 2026-04-14 13:48 | 47.13154 | 8.51875 | 37188 ft | 460 kts | 175° |
| 2026-04-14 13:48 | 47.06787 | 8.52801 | 37173 ft | 460 kts | 175° |
| 2026-04-14 13:49 | 47.00422 | 8.53723 | 37177 ft | 459 kts | 175° |
| 2026-04-14 13:49 | 46.94062 | 8.54638 | 37167 ft | 459 kts | 175° |
| 2026-04-14 13:50 | 46.87701 | 8.55547 | 37170 ft | 459 kts | 175° |
| 2026-04-14 13:50 | 46.81340 | 8.56457 | 37133 ft | 459 kts | 175° |
| 2026-04-14 13:51 | 46.74984 | 8.57368 | 37142 ft | 457 kts | 175° |
| 2026-04-14 13:51 | 46.68655 | 8.58271 | 37106 ft | 457 kts | 175° |
| 2026-04-14 13:52 | 46.62326 | 8.59175 | 37084 ft | 458 kts | 174° |
| 2026-04-14 13:52 | 46.55996 | 8.60074 | 37070 ft | 458 kts | 174° |
| 2026-04-14 13:53 | 46.49656 | 8.60973 | 37072 ft | 458 kts | 174° |
| 2026-04-14 13:53 | 46.43362 | 8.61863 | 37036 ft | 458 kts | 174° |
| 2026-04-14 13:54 | 46.37039 | 8.62755 | 37000 ft | 457 kts | 174° |
| 2026-04-14 13:54 | 46.30697 | 8.63649 | 36980 ft | 458 kts | 175° |
| 2026-04-14 13:55 | 46.24352 | 8.64541 | 36979 ft | 458 kts | 174° |
| 2026-04-14 13:55 | 46.18019 | 8.65429 | 36971 ft | 458 kts | 174° |
| 2026-04-14 13:56 | 46.11664 | 8.66364 | 36963 ft | 460 kts | 171° |
| 2026-04-14 13:56 | 46.05567 | 8.69038 | 36967 ft | 459 kts | 159° |
| 2026-04-14 13:57 | 45.99615 | 8.72359 | 36968 ft | 456 kts | 159° |
| 2026-04-14 13:57 | 45.93681 | 8.75610 | 36967 ft | 456 kts | 159° |
| 2026-04-14 13:58 | 45.87738 | 8.78830 | 36968 ft | 457 kts | 159° |
| 2026-04-14 13:58 | 45.81794 | 8.82043 | 36973 ft | 456 kts | 159° |
| 2026-04-14 13:59 | 45.75836 | 8.85254 | 36977 ft | 458 kts | 159° |
| 2026-04-14 13:59 | 45.69864 | 8.88467 | 36993 ft | 458 kts | 159° |
| 2026-04-14 14:00 | 45.63914 | 8.91663 | 36991 ft | 458 kts | 159° |
| 2026-04-14 14:00 | 45.57947 | 8.94860 | 36992 ft | 457 kts | 159° |
| 2026-04-14 14:01 | 45.52007 | 8.98034 | 36994 ft | 456 kts | 159° |
| 2026-04-14 14:01 | 45.46077 | 9.01198 | 37011 ft | 456 kts | 159° |
| 2026-04-14 14:02 | 45.40148 | 9.04352 | 37013 ft | 456 kts | 159° |
| 2026-04-14 14:02 | 45.34190 | 9.07513 | 37014 ft | 457 kts | 159° |
| 2026-04-14 14:03 | 45.28247 | 9.10662 | 37009 ft | 457 kts | 159° |
| 2026-04-14 14:03 | 45.22306 | 9.13801 | 37009 ft | 456 kts | 159° |
| 2026-04-14 14:04 | 45.16357 | 9.16937 | 36994 ft | 456 kts | 159° |
| 2026-04-14 14:04 | 45.10423 | 9.20062 | 36991 ft | 454 kts | 159° |
| 2026-04-14 14:05 | 45.04488 | 9.23178 | 36992 ft | 455 kts | 160° |
| 2026-04-14 14:05 | 44.98580 | 9.26270 | 36988 ft | 452 kts | 160° |
| 2026-04-14 14:06 | 44.92675 | 9.29356 | 36991 ft | 453 kts | 160° |
| 2026-04-14 14:06 | 44.86769 | 9.32435 | 36987 ft | 452 kts | 160° |
| 2026-04-14 14:07 | 44.80872 | 9.35505 | 36984 ft | 452 kts | 160° |
| 2026-04-14 14:07 | 44.75016 | 9.38544 | 36982 ft | 451 kts | 160° |
| 2026-04-14 14:08 | 44.69123 | 9.41595 | 36982 ft | 452 kts | 160° |
| 2026-04-14 14:08 | 44.63232 | 9.44643 | 36977 ft | 452 kts | 160° |
| 2026-04-14 14:09 | 44.57339 | 9.47685 | 36964 ft | 448 kts | 160° |
| 2026-04-14 14:09 | 44.51486 | 9.50698 | 36965 ft | 448 kts | 161° |
| 2026-04-14 14:10 | 44.45631 | 9.53702 | 36968 ft | 448 kts | 161° |
| 2026-04-14 14:10 | 44.39774 | 9.56709 | 36962 ft | 448 kts | 161° |
| 2026-04-14 14:11 | 44.33919 | 9.59701 | 36947 ft | 449 kts | 161° |
| 2026-04-14 14:11 | 44.28054 | 9.62694 | 36943 ft | 449 kts | 160° |
| 2026-04-14 14:12 | 44.22192 | 9.65679 | 36938 ft | 448 kts | 161° |
| 2026-04-14 14:12 | 44.16337 | 9.68657 | 36934 ft | 448 kts | 161° |
| 2026-04-14 14:13 | 44.10485 | 9.71622 | 36930 ft | 447 kts | 161° |
| 2026-04-14 14:13 | 44.04629 | 9.74588 | 36935 ft | 448 kts | 161° |
| 2026-04-14 14:14 | 43.98775 | 9.77544 | 36929 ft | 448 kts | 160° |
| 2026-04-14 14:14 | 43.92923 | 9.80491 | 36928 ft | 447 kts | 160° |
| 2026-04-14 14:15 | 43.87067 | 9.83437 | 36919 ft | 448 kts | 160° |
| 2026-04-14 14:15 | 43.81260 | 9.86351 | 36925 ft | 443 kts | 160° |
| 2026-04-14 14:16 | 43.75464 | 9.89251 | 36918 ft | 442 kts | 160° |
| 2026-04-14 14:16 | 43.69676 | 9.92144 | 36910 ft | 442 kts | 160° |
| 2026-04-14 14:17 | 43.60988 | 9.96476 | 36908 ft | 443 kts | 160° |
| 2026-04-14 14:17 | 43.55247 | 9.99331 | 36912 ft | 440 kts | 160° |
| 2026-04-14 14:18 | 43.49495 | 10.02186 | 36905 ft | 440 kts | 160° |
| 2026-04-14 14:18 | 43.43731 | 10.05041 | 36910 ft | 436 kts | 160° |
| 2026-04-14 14:19 | 43.38970 | 10.07394 | 36896 ft | 431 kts | 160° |
| 2026-04-14 14:19 | 43.33368 | 10.10157 | 36895 ft | 428 kts | 160° |
| 2026-04-14 14:20 | 43.27753 | 10.12922 | 36902 ft | 427 kts | 160° |
| 2026-04-14 14:20 | 43.22160 | 10.15671 | 36900 ft | 426 kts | 160° |
| 2026-04-14 14:21 | 43.16572 | 10.18412 | 36900 ft | 428 kts | 160° |
| 2026-04-14 14:21 | 43.10959 | 10.21160 | 36897 ft | 428 kts | 160° |
| 2026-04-14 14:22 | 43.05362 | 10.23895 | 36900 ft | 427 kts | 160° |
| 2026-04-14 14:22 | 42.99797 | 10.26606 | 36893 ft | 427 kts | 160° |
| 2026-04-14 14:23 | 42.94202 | 10.29332 | 36890 ft | 427 kts | 160° |
| 2026-04-14 14:23 | 42.88599 | 10.32052 | 36891 ft | 427 kts | 160° |
| 2026-04-14 14:24 | 42.82999 | 10.34768 | 36890 ft | 427 kts | 160° |
| 2026-04-14 14:24 | 42.77394 | 10.37480 | 36888 ft | 428 kts | 160° |
| 2026-04-14 14:25 | 42.71807 | 10.40258 | 36895 ft | 427 kts | 158° |
| 2026-04-14 14:25 | 42.66291 | 10.43272 | 36891 ft | 427 kts | 158° |
| 2026-04-14 14:26 | 42.60776 | 10.46291 | 36886 ft | 427 kts | 158° |
| 2026-04-14 14:26 | 42.55254 | 10.49302 | 36886 ft | 427 kts | 158° |
| 2026-04-14 14:27 | 42.49765 | 10.52290 | 36887 ft | 428 kts | 158° |
| 2026-04-14 14:27 | 42.44198 | 10.55313 | 36886 ft | 428 kts | 158° |
| 2026-04-14 14:28 | 42.38766 | 10.58260 | 36874 ft | 421 kts | 158° |
| 2026-04-14 14:28 | 42.33336 | 10.61199 | 36883 ft | 420 kts | 158° |
| 2026-04-14 14:29 | 42.27904 | 10.64133 | 36884 ft | 421 kts | 158° |
| 2026-04-14 14:29 | 42.22469 | 10.67062 | 36882 ft | 420 kts | 158° |
| 2026-04-14 14:30 | 42.17041 | 10.69983 | 36882 ft | 420 kts | 158° |
| 2026-04-14 14:30 | 42.11608 | 10.72901 | 36884 ft | 421 kts | 158° |
| 2026-04-14 14:31 | 42.06176 | 10.75815 | 36885 ft | 420 kts | 158° |
| 2026-04-14 14:31 | 42.00750 | 10.78720 | 36881 ft | 420 kts | 158° |
| 2026-04-14 14:32 | 41.95326 | 10.81618 | 36890 ft | 420 kts | 158° |
| 2026-04-14 14:32 | 41.89894 | 10.84513 | 36888 ft | 420 kts | 158° |
| 2026-04-14 14:33 | 41.84465 | 10.87401 | 36890 ft | 420 kts | 158° |
| 2026-04-14 14:33 | 41.79025 | 10.90289 | 36890 ft | 420 kts | 158° |
| 2026-04-14 14:34 | 41.70875 | 10.94610 | 36892 ft | 420 kts | 158° |
| 2026-04-14 14:35 | 41.65438 | 10.97487 | 36896 ft | 421 kts | 158° |
| 2026-04-14 14:35 | 41.59988 | 11.00363 | 36892 ft | 421 kts | 159° |
| 2026-04-14 14:36 | 41.54535 | 11.03235 | 36889 ft | 421 kts | 159° |
| 2026-04-14 14:36 | 41.49081 | 11.06103 | 36888 ft | 421 kts | 159° |
| 2026-04-14 14:37 | 41.43626 | 11.08967 | 36891 ft | 421 kts | 159° |
| 2026-04-14 14:37 | 41.38166 | 11.11830 | 36888 ft | 422 kts | 159° |
| 2026-04-14 14:38 | 41.32709 | 11.14686 | 36888 ft | 421 kts | 159° |
| 2026-04-14 14:38 | 41.27252 | 11.17538 | 36887 ft | 421 kts | 159° |
| 2026-04-14 14:39 | 41.21790 | 11.20384 | 36893 ft | 422 kts | 159° |
| 2026-04-14 14:39 | 41.16327 | 11.23229 | 36887 ft | 422 kts | 159° |
| 2026-04-14 14:40 | 41.10899 | 11.26049 | 36881 ft | 422 kts | 159° |
| 2026-04-14 14:40 | 41.05435 | 11.28883 | 36883 ft | 422 kts | 159° |
| 2026-04-14 14:41 | 40.99975 | 11.31709 | 36879 ft | 420 kts | 159° |
| 2026-04-14 14:41 | 40.94540 | 11.34520 | 36880 ft | 419 kts | 159° |
| 2026-04-14 14:42 | 40.89106 | 11.37322 | 36887 ft | 419 kts | 159° |
| 2026-04-14 14:42 | 40.83670 | 11.40123 | 36878 ft | 419 kts | 159° |
| 2026-04-14 14:43 | 40.78234 | 11.42916 | 36874 ft | 419 kts | 159° |
| 2026-04-14 14:43 | 40.72785 | 11.45712 | 36879 ft | 421 kts | 160° |
| 2026-04-14 14:44 | 40.67331 | 11.48508 | 36875 ft | 421 kts | 160° |
| 2026-04-14 14:44 | 40.61873 | 11.51300 | 36876 ft | 421 kts | 160° |
| 2026-04-14 14:45 | 40.56418 | 11.54085 | 36873 ft | 421 kts | 160° |
| 2026-04-14 14:45 | 40.50963 | 11.56866 | 36872 ft | 420 kts | 160° |
| 2026-04-14 14:46 | 40.45513 | 11.59638 | 36869 ft | 420 kts | 160° |
| 2026-04-14 14:46 | 40.40058 | 11.62411 | 36872 ft | 420 kts | 160° |
| 2026-04-14 14:47 | 40.34606 | 11.65173 | 36868 ft | 420 kts | 160° |
| 2026-04-14 14:47 | 40.29208 | 11.67901 | 36857 ft | 414 kts | 160° |
| 2026-04-14 14:48 | 40.23860 | 11.70598 | 36866 ft | 411 kts | 160° |
| 2026-04-14 14:48 | 40.18516 | 11.73291 | 36868 ft | 411 kts | 160° |
| 2026-04-14 14:49 | 40.13174 | 11.75978 | 36869 ft | 411 kts | 160° |
| 2026-04-14 14:49 | 40.07825 | 11.78659 | 36868 ft | 411 kts | 160° |
| 2026-04-14 14:50 | 40.02457 | 11.81352 | 36626 ft | 421 kts | 160° |
| 2026-04-14 14:50 | 39.99718 | 11.82724 | 36357 ft | 418 kts | 160° |
| 2026-04-14 14:50 | 39.97042 | 11.84068 | 36107 ft | 407 kts | 160° |
| 2026-04-14 14:50 | 39.94449 | 11.85367 | 35856 ft | 403 kts | 160° |
| 2026-04-14 14:51 | 39.91837 | 11.86674 | 35605 ft | 401 kts | 160° |
| 2026-04-14 14:51 | 39.89231 | 11.87975 | 35362 ft | 400 kts | 160° |
| 2026-04-14 14:51 | 39.86644 | 11.89298 | 35122 ft | 397 kts | 159° |
| 2026-04-14 14:51 | 39.84137 | 11.90695 | 34883 ft | 389 kts | 158° |
| 2026-04-14 14:52 | 39.81667 | 11.92089 | 34540 ft | 385 kts | 158° |
| 2026-04-14 14:52 | 39.79217 | 11.93474 | 34113 ft | 383 kts | 158° |
| 2026-04-14 14:52 | 39.76781 | 11.94849 | 33608 ft | 381 kts | 158° |
| 2026-04-14 14:52 | 39.74347 | 11.96220 | 33112 ft | 382 kts | 158° |
| 2026-04-14 14:53 | 39.71912 | 11.97590 | 32674 ft | 378 kts | 158° |
| 2026-04-14 14:53 | 39.69532 | 11.98928 | 32317 ft | 370 kts | 158° |
| 2026-04-14 14:53 | 39.67170 | 12.00254 | 31738 ft | 369 kts | 159° |
| 2026-04-14 14:53 | 39.64825 | 12.01569 | 31299 ft | 364 kts | 159° |
| 2026-04-14 14:54 | 39.62532 | 12.02857 | 30967 ft | 355 kts | 159° |
| 2026-04-14 14:54 | 39.60269 | 12.04125 | 30428 ft | 354 kts | 160° |
| 2026-04-14 14:54 | 39.58022 | 12.05383 | 29972 ft | 348 kts | 160° |
| 2026-04-14 14:54 | 39.55828 | 12.06611 | 29603 ft | 340 kts | 160° |
| 2026-04-14 14:55 | 39.53660 | 12.07823 | 29061 ft | 339 kts | 160° |
| 2026-04-14 14:55 | 39.51489 | 12.09034 | 28592 ft | 341 kts | 160° |
| 2026-04-14 14:55 | 39.49322 | 12.10244 | 28210 ft | 336 kts | 160° |
| 2026-04-14 14:55 | 39.47202 | 12.11431 | 27939 ft | 327 kts | 159° |
| 2026-04-14 14:56 | 39.43005 | 12.13767 | 26980 ft | 340 kts | 159° |
| 2026-04-14 14:56 | 39.40824 | 12.14981 | 26537 ft | 340 kts | 159° |
| 2026-04-14 14:56 | 39.38656 | 12.16184 | 26099 ft | 339 kts | 160° |
| 2026-04-14 14:57 | 39.36488 | 12.17390 | 25688 ft | 338 kts | 159° |
| 2026-04-14 14:57 | 39.34334 | 12.18588 | 25286 ft | 337 kts | 159° |
| 2026-04-14 14:57 | 39.32186 | 12.19783 | 24886 ft | 335 kts | 159° |
| 2026-04-14 14:57 | 39.30049 | 12.20971 | 24461 ft | 334 kts | 159° |
| 2026-04-14 14:58 | 39.27919 | 12.22152 | 24038 ft | 332 kts | 159° |
| 2026-04-14 14:58 | 39.25802 | 12.23327 | 23633 ft | 331 kts | 159° |
| 2026-04-14 14:58 | 39.23687 | 12.24498 | 23184 ft | 329 kts | 159° |
| 2026-04-14 14:58 | 39.21619 | 12.25644 | 22734 ft | 327 kts | 159° |
| 2026-04-14 14:59 | 39.19538 | 12.26793 | 22300 ft | 324 kts | 158° |
| 2026-04-14 14:59 | 39.17473 | 12.27937 | 21876 ft | 322 kts | 158° |
| 2026-04-14 14:59 | 39.15425 | 12.29069 | 21452 ft | 319 kts | 158° |
| 2026-04-14 14:59 | 39.13382 | 12.30195 | 21034 ft | 319 kts | 158° |
| 2026-04-14 15:00 | 39.11351 | 12.31315 | 20626 ft | 316 kts | 158° |
| 2026-04-14 15:00 | 39.09338 | 12.32424 | 20222 ft | 313 kts | 158° |
| 2026-04-14 15:00 | 39.07345 | 12.33522 | 19859 ft | 310 kts | 158° |
| 2026-04-14 15:00 | 39.05369 | 12.34610 | 19490 ft | 308 kts | 158° |
| 2026-04-14 15:01 | 39.03406 | 12.35691 | 19109 ft | 306 kts | 158° |
| 2026-04-14 15:01 | 39.01461 | 12.36760 | 18748 ft | 303 kts | 158° |
| 2026-04-14 15:01 | 38.99529 | 12.37823 | 18398 ft | 300 kts | 157° |
| 2026-04-14 15:01 | 38.97614 | 12.38875 | 18026 ft | 298 kts | 157° |
| 2026-04-14 15:02 | 38.95709 | 12.39919 | 17641 ft | 297 kts | 157° |
| 2026-04-14 15:02 | 38.93817 | 12.40957 | 17258 ft | 295 kts | 158° |
| 2026-04-14 15:02 | 38.91944 | 12.41986 | 16876 ft | 292 kts | 158° |
| 2026-04-14 15:02 | 38.90080 | 12.43008 | 16554 ft | 291 kts | 158° |
| 2026-04-14 15:03 | 38.88221 | 12.44027 | 16239 ft | 290 kts | 158° |
| 2026-04-14 15:03 | 38.86376 | 12.45064 | 15934 ft | 289 kts | 156° |
| 2026-04-14 15:03 | 38.84558 | 12.46154 | 15662 ft | 288 kts | 156° |
| 2026-04-14 15:03 | 38.82747 | 12.47248 | 15385 ft | 287 kts | 156° |
| 2026-04-14 15:04 | 38.80945 | 12.48335 | 15079 ft | 286 kts | 156° |
| 2026-04-14 15:04 | 38.79147 | 12.49418 | 14771 ft | 285 kts | 156° |
| 2026-04-14 15:04 | 38.77359 | 12.50494 | 14445 ft | 284 kts | 156° |
| 2026-04-14 15:04 | 38.75579 | 12.51565 | 14061 ft | 282 kts | 155° |
| 2026-04-14 15:05 | 38.73804 | 12.52630 | 13697 ft | 281 kts | 155° |
| 2026-04-14 15:05 | 38.72034 | 12.53693 | 13336 ft | 281 kts | 155° |
| 2026-04-14 15:05 | 38.70268 | 12.54753 | 12993 ft | 280 kts | 155° |
| 2026-04-14 15:05 | 38.68504 | 12.55814 | 12666 ft | 280 kts | 155° |
| 2026-04-14 15:06 | 38.66745 | 12.56870 | 12355 ft | 280 kts | 155° |
| 2026-04-14 15:06 | 38.65576 | 12.57570 | 12142 ft | 279 kts | 155° |
| 2026-04-14 15:06 | 38.63817 | 12.58621 | 11808 ft | 280 kts | 155° |
| 2026-04-14 15:06 | 38.62059 | 12.59672 | 11475 ft | 279 kts | 155° |
| 2026-04-14 15:07 | 38.60300 | 12.60723 | 11137 ft | 279 kts | 155° |
| 2026-04-14 15:07 | 38.58542 | 12.61776 | 10802 ft | 280 kts | 155° |
| 2026-04-14 15:07 | 38.56791 | 12.62825 | 10472 ft | 278 kts | 155° |
| 2026-04-14 15:07 | 38.55037 | 12.63873 | 10149 ft | 278 kts | 155° |
| 2026-04-14 15:08 | 38.53289 | 12.64915 | 9834 ft | 277 kts | 155° |
| 2026-04-14 15:08 | 38.51549 | 12.65953 | 9478 ft | 275 kts | 155° |
| 2026-04-14 15:08 | 38.49818 | 12.66984 | 9122 ft | 275 kts | 155° |
| 2026-04-14 15:08 | 38.48086 | 12.68016 | 8770 ft | 274 kts | 155° |
| 2026-04-14 15:09 | 38.46362 | 12.69043 | 8442 ft | 271 kts | 155° |
| 2026-04-14 15:09 | 38.44686 | 12.70044 | 8239 ft | 261 kts | 155° |
| 2026-04-14 15:09 | 38.43078 | 12.71003 | 8068 ft | 249 kts | 155° |
| 2026-04-14 15:09 | 38.41519 | 12.71933 | 7825 ft | 246 kts | 155° |
| 2026-04-14 15:10 | 38.39976 | 12.72854 | 7521 ft | 244 kts | 155° |
| 2026-04-14 15:10 | 38.38439 | 12.73769 | 7208 ft | 244 kts | 155° |
| 2026-04-14 15:10 | 38.36907 | 12.74684 | 6878 ft | 243 kts | 155° |
| 2026-04-14 15:10 | 38.35379 | 12.75595 | 6537 ft | 242 kts | 155° |
| 2026-04-14 15:11 | 38.33851 | 12.76504 | 6252 ft | 241 kts | 155° |
| 2026-04-14 15:11 | 38.32345 | 12.77395 | 5955 ft | 236 kts | 155° |
| 2026-04-14 15:11 | 38.30867 | 12.78265 | 5676 ft | 231 kts | 154° |
| 2026-04-14 15:11 | 38.29428 | 12.79112 | 5423 ft | 224 kts | 154° |
| 2026-04-14 15:12 | 38.28050 | 12.79922 | 5236 ft | 212 kts | 154° |
| 2026-04-14 15:12 | 38.26744 | 12.80691 | 5250 ft | 205 kts | 154° |
| 2026-04-14 15:12 | 38.25457 | 12.81451 | 5284 ft | 204 kts | 154° |
| 2026-04-14 15:12 | 38.24186 | 12.82192 | 5168 ft | 193 kts | 155° |
| 2026-04-14 15:13 | 38.22987 | 12.82836 | 4991 ft | 184 kts | 155° |
| 2026-04-14 15:13 | 38.21807 | 12.83470 | 4701 ft | 184 kts | 155° |
| 2026-04-14 15:13 | 38.20638 | 12.84102 | 4403 ft | 179 kts | 155° |
| 2026-04-14 15:13 | 38.19510 | 12.84708 | 4162 ft | 175 kts | 155° |
| 2026-04-14 15:14 | 38.18388 | 12.85317 | 3922 ft | 174 kts | 155° |
| 2026-04-14 15:14 | 38.17286 | 12.85909 | 3690 ft | 173 kts | 157° |
| 2026-04-14 15:14 | 38.16177 | 12.86510 | 3462 ft | 176 kts | 157° |
| 2026-04-14 15:14 | 38.15052 | 12.87120 | 3228 ft | 176 kts | 156° |
| 2026-04-14 15:15 | 38.13927 | 12.87730 | 3200 ft | 176 kts | 156° |
| 2026-04-14 15:15 | 38.12802 | 12.88338 | 3229 ft | 172 kts | 157° |
| 2026-04-14 15:15 | 38.11785 | 12.88947 | 3157 ft | 156 kts | 147° |
| 2026-04-14 15:15 | 38.11220 | 12.90061 | 2940 ft | 158 kts | 97° |
| 2026-04-14 15:16 | 38.11529 | 12.91391 | 2741 ft | 161 kts | 62° |
| 2026-04-14 15:16 | 38.12015 | 12.92655 | 2489 ft | 158 kts | 65° |
| 2026-04-14 15:16 | 38.12434 | 12.93855 | 2284 ft | 140 kts | 66° |
| 2026-04-14 15:16 | 38.12819 | 12.94988 | 2262 ft | 139 kts | 66° |
| 2026-04-14 15:17 | 38.13185 | 12.96111 | 2189 ft | 140 kts | 66° |
| 2026-04-14 15:17 | 38.13581 | 12.97255 | 1996 ft | 140 kts | 66° |
| 2026-04-14 15:17 | 38.13963 | 12.98382 | 1784 ft | 139 kts | 65° |
| 2026-04-14 15:17 | 38.14346 | 12.99500 | 1588 ft | 139 kts | 64° |
| 2026-04-14 15:18 | 38.14720 | 13.00616 | 1446 ft | 136 kts | 63° |
| 2026-04-14 15:18 | 38.15091 | 13.01714 | 1232 ft | 137 kts | 66° |
| 2026-04-14 15:18 | 38.15464 | 13.02812 | 1059 ft | 133 kts | 61° |
| 2026-04-14 15:18 | 38.15829 | 13.03896 | 872 ft | 134 kts | 61° |
| 2026-04-14 15:19 | 38.16207 | 13.04977 | 703 ft | 135 kts | 60° |
| 2026-04-14 15:19 | 38.16592 | 13.06061 | 569 ft | 134 kts | 63° |
| 2026-04-14 15:19 | 38.16944 | 13.07159 | 350 ft | 134 kts | 64° |
| 2026-04-14 15:19 | 38.17298 | 13.08267 | 171 ft | 136 kts | 63° |
| 2026-04-14 15:20 | 38.17659 | 13.09363 | 57 ft | 130 kts | 62° |
| 2026-04-14 15:20 | 38.17973 | 13.10266 | 57 ft | 84 kts | 65° |
| 2026-04-14 15:20 | 38.18116 | 13.10697 | 58 ft | 20 kts | 67° |
| 2026-04-14 15:20 | 38.18158 | 13.10717 | 54 ft | 9 kts | 319° |
| 2026-04-14 15:21 | 38.18179 | 13.10629 | 57 ft | 12 kts | 275° |
| 2026-04-14 15:21 | 38.18188 | 13.10516 | 56 ft | 14 kts | 276° |
| 2026-04-14 15:21 | 38.18218 | 13.10393 | 57 ft | 16 kts | 322° |
| 2026-04-14 15:21 | 38.18312 | 13.10425 | 57 ft | 18 kts | 69° |
| 2026-04-14 15:22 | 38.18395 | 13.10506 | 53 ft | 8 kts | 20° |
| 2026-04-14 15:22 | 38.18448 | 13.10553 | 53 ft | 11 kts | 57° |
| 2026-04-14 15:22 | 38.18492 | 13.10581 | 58 ft | 9 kts | 336° |
| 2026-04-14 15:22 | 38.18526 | 13.10562 | 58 ft | 0 kts | 337° |
| 2026-04-14 15:23 | 38.18530 | 13.10561 | 58 ft | 0 kts | 337° |